»·PEaware :: ASA611 KSLC-KDEN

ASA611 :: KSLC-KDEN

FLIGHT INFORMATION

Flight Status: Arrived
Operator:
Alaska Airlines
More flights by this operator :: More flights under this callsign
Pilot: Pratham R. (19019)
Aircraft: BOEING 737-700
(B737)
More flights by this aircraft type
Origin: KSLC Salt Lake City Intl
United States
Destination: KDEN Denver Intl
United States
More flights between these airports :: More routes between these airports
Route: RUGGD1 PERTY KAMPR LONGZ1
File this flight plan on PilotEdge
Remarks: RMK / SIMBRIEF
Altitude:
(Current/Filed)
39,000ft
Speed:
(Current/Filed)
446kts
Departed: 23-Jun-20 05:02 PM
Arrived: 23-Jun-20 06:21 PM
Distance/Time
Traveled:
338nm/1:19
Distance/Time
To Go:
Arrived

Flight Plot

Page will automatically refresh every two minutes.

Flight plan parsing failed; only flown route is shown


Map Options




Map Legend


Flown Route
Filed Route
Departure Airport
Arrival Airport
Navaid (VOR, NDB)
Fix

Horizontal Profiles

Position Reports

Time Latitude Longitude Heading Altitude Ground
Speed
23-Jun-20 16:44 40.785565 -111.978041 227 4226ft 0kts
23-Jun-20 16:45 40.785565 -111.978041 227 4226ft 0kts
23-Jun-20 16:46 40.785565 -111.978041 227 4226ft 0kts
23-Jun-20 16:47 40.785565 -111.978041 227 4226ft 0kts
23-Jun-20 16:48 40.785565 -111.978041 227 4226ft 0kts
23-Jun-20 16:49 40.785565 -111.978041 227 4226ft 0kts
23-Jun-20 16:50 40.785757 -111.977763 224 4225ft 2kts
23-Jun-20 16:51 40.786226 -111.977994 96 4224ft 1kts
23-Jun-20 16:52 40.786225 -111.978130 87 4224ft 0kts
23-Jun-20 16:53 40.786225 -111.978130 87 4224ft 0kts
23-Jun-20 16:54 40.786225 -111.978130 87 4224ft 0kts
23-Jun-20 16:55 40.786225 -111.978130 87 4224ft 0kts
23-Jun-20 16:56 40.786237 -111.977836 86 4224ft 5kts
23-Jun-20 16:57 40.784963 -111.976502 175 4226ft 11kts
23-Jun-20 16:58 40.778606 -111.975771 175 4227ft 31kts
23-Jun-20 16:59 40.774538 -111.974018 66 4227ft 10kts
23-Jun-20 17:00 40.775440 -111.973220 354 4227ft 0kts
23-Jun-20 17:01 40.777774 -111.973512 354 4227ft 66kts
23-Jun-20 17:02 40.796913 -111.976622 265 4224ft 12kts
23-Jun-20 17:03 40.795031 -111.977674 173 4223ft 6kts
23-Jun-20 17:04 40.791578 -111.977264 175 4222ft 15kts
23-Jun-20 17:05 40.786803 -111.976720 174 4223ft 18kts
23-Jun-20 17:06 40.782304 -111.976199 174 4227ft 18kts
23-Jun-20 17:07 40.775931 -111.975456 175 4227ft 21kts
23-Jun-20 17:08 40.775062 -111.973215 17 4227ft 4kts
23-Jun-20 17:09 40.790955 -111.974987 354 4225ft 164kts
23-Jun-20 17:10 40.836896 -111.990025 314 6133ft 193kts
23-Jun-20 17:11 40.874581 -112.058396 304 7903ft 254kts
23-Jun-20 17:12 40.921254 -112.131556 334 10951ft 269kts
23-Jun-20 17:13 40.989991 -112.110676 45 14060ft 290kts
23-Jun-20 17:14 41.042321 -112.026310 51 16960ft 312kts
23-Jun-20 17:15 41.085397 -111.911477 63 18577ft 372kts
23-Jun-20 17:16 41.106587 -111.777096 95 21236ft 392kts
23-Jun-20 17:17 41.060409 -111.644786 127 23355ft 414kts
23-Jun-20 17:18 40.987414 -111.525974 128 25759ft 425kts
23-Jun-20 17:19 40.919011 -111.396574 112 27830ft 437kts
23-Jun-20 17:20 40.890689 -111.240282 97 29734ft 447kts
23-Jun-20 17:21 40.871290 -111.076151 97 31588ft 455kts
23-Jun-20 17:22 40.851602 -110.912387 97 33798ft 449kts
23-Jun-20 17:23 40.831960 -110.750966 97 35789ft 443kts
23-Jun-20 17:24 40.812296 -110.591242 97 37366ft 441kts
23-Jun-20 17:25 40.792452 -110.431948 97 38669ft 440kts
23-Jun-20 17:26 40.772202 -110.271020 98 39221ft 456kts
23-Jun-20 17:27 40.751176 -110.106076 98 39118ft 453kts
23-Jun-20 17:28 40.735943 -109.941548 93 39118ft 454kts
23-Jun-20 17:29 40.724932 -109.776056 93 39118ft 454kts
23-Jun-20 17:30 40.713613 -109.610592 93 39119ft 454kts
23-Jun-20 17:31 40.702088 -109.445569 93 39119ft 453kts
23-Jun-20 17:32 40.690308 -109.280210 93 39117ft 454kts
23-Jun-20 17:33 40.678283 -109.114855 93 39118ft 454kts
23-Jun-20 17:34 40.666610 -108.949200 92 39118ft 453kts
23-Jun-20 17:35 40.656068 -108.784538 92 39126ft 453kts
23-Jun-20 17:36 40.645205 -108.619001 92 39140ft 453kts
23-Jun-20 17:38 40.634138 -108.453967 92 39172ft 453kts
23-Jun-20 17:39 40.622943 -108.290400 93 39172ft 453kts
23-Jun-20 17:40 40.611402 -108.125329 93 39175ft 453kts
23-Jun-20 17:41 40.599634 -107.960393 93 39180ft 454kts
23-Jun-20 17:42 40.587590 -107.795068 93 39182ft 454kts
23-Jun-20 17:43 40.575088 -107.630072 93 39183ft 454kts
23-Jun-20 17:44 40.562344 -107.465427 93 39188ft 453kts
23-Jun-20 17:45 40.549762 -107.300578 93 39212ft 454kts
23-Jun-20 17:46 40.536951 -107.136001 93 39219ft 454kts
23-Jun-20 17:47 40.523843 -106.970774 94 39219ft 451kts
23-Jun-20 17:48 40.510932 -106.811105 94 39218ft 430kts
23-Jun-20 17:49 40.498061 -106.654331 95 39220ft 436kts
23-Jun-20 17:50 40.484525 -106.494979 95 37753ft 440kts
23-Jun-20 17:51 40.469946 -106.336764 96 35216ft 436kts
23-Jun-20 17:52 40.455696 -106.179302 95 32518ft 433kts
23-Jun-20 17:53 40.441671 -106.020889 95 30036ft 432kts
23-Jun-20 17:54 40.425727 -105.868334 100 27850ft 414kts
23-Jun-20 17:54 40.406382 -105.747650 100 26110ft 399kts
23-Jun-20 17:56 40.380609 -105.585469 100 23764ft 387kts
23-Jun-20 17:57 40.358095 -105.445279 99 21723ft 385kts
23-Jun-20 17:57 40.328020 -105.341737 121 21175ft 348kts
23-Jun-20 17:58 40.270803 -105.240231 126 19806ft 342kts
23-Jun-20 17:59 40.213656 -105.143947 126 18235ft 331kts
23-Jun-20 18:00 40.157893 -105.050228 126 17032ft 327kts
23-Jun-20 18:01 40.094156 -104.962581 134 16267ft 327kts
23-Jun-20 18:02 40.030452 -104.880731 133 14724ft 317kts
23-Jun-20 18:03 39.959173 -104.815373 162 13106ft 314kts
23-Jun-20 18:04 39.871860 -104.806651 180 11728ft 305kts
23-Jun-20 18:05 39.794037 -104.808773 180 11055ft 258kts
23-Jun-20 18:06 39.720499 -104.810351 179 11011ft 264kts
23-Jun-20 18:07 39.646978 -104.811822 179 10615ft 263kts
23-Jun-20 18:08 39.574460 -104.813262 179 9505ft 259kts
23-Jun-20 18:09 39.502583 -104.814669 179 8366ft 258kts
23-Jun-20 18:10 39.448984 -104.774900 96 8032ft 216kts
23-Jun-20 18:11 39.479699 -104.721412 27 8044ft 200kts
23-Jun-20 18:12 39.530455 -104.697689 0 8044ft 200kts
23-Jun-20 18:13 39.585702 -104.700482 358 8049ft 198kts
23-Jun-20 18:14 39.640823 -104.699381 0 8049ft 198kts
23-Jun-20 18:15 39.695908 -104.698603 0 8047ft 198kts
23-Jun-20 18:16 39.748050 -104.698248 0 7463ft 161kts
23-Jun-20 18:17 39.792526 -104.697503 359 6641ft 158kts
23-Jun-20 18:18 39.834403 -104.696842 358 5821ft 148kts
23-Jun-20 18:19 39.868831 -104.696437 0 5442ft 65kts
23-Jun-20 18:20 39.874858 -104.694343 40 5442ft 7kts
23-Jun-20 18:21 39.875024 -104.691166 90 5442ft 10kts
23-Jun-20 18:22 39.874373 -104.684939 177 5442ft 12kts
23-Jun-20 18:23 39.869059 -104.685013 180 5442ft 23kts
23-Jun-20 18:24 39.864225 -104.684690 87 5442ft 5kts
23-Jun-20 18:25 39.864181 -104.681064 93 5442ft 11kts
23-Jun-20 18:26 39.864041 -104.677927 142 5442ft 5kts
23-Jun-20 18:27 39.863600 -104.677848 179 5442ft 0kts
23-Jun-20 18:28 39.863600 -104.677848 179 5442ft 0kts
23-Jun-20 18:29 39.863600 -104.677848 179 5442ft 0kts
23-Jun-20 18:30 39.863600 -104.677848 179 5442ft 0kts
23-Jun-20 18:31 39.863600 -104.677848 179 5442ft 0kts
23-Jun-20 18:32 39.863600 -104.677848 179 5442ft 0kts
23-Jun-20 18:33 39.863600 -104.677848 179 5442ft 0kts
23-Jun-20 18:34 39.863600 -104.677848 179 5442ft 0kts

Navigation Log

Ident Type
Flight plan parsing failed, navigation log unavailable